createdAt,value
2018-05-24T00:01:24.840Z,84.48
2018-05-24T00:03:53.263Z,84.49
2018-05-24T00:06:21.684Z,84.54
2018-05-24T00:08:50.924Z,84.79
2018-05-24T00:11:19.343Z,85.45
2018-05-24T00:13:47.792Z,85.84
2018-05-24T00:16:16.222Z,85.96
2018-05-24T00:18:44.666Z,86.21
2018-05-24T00:21:13.094Z,86.15
2018-05-24T00:23:41.553Z,86.03
2018-05-24T00:26:09.998Z,86.22
2018-05-24T00:28:38.469Z,86.27
2018-05-24T00:31:06.896Z,86.10
2018-05-24T00:33:35.368Z,86.50
2018-05-24T00:36:03.806Z,86.43
2018-05-24T00:38:32.252Z,86.28
2018-05-24T00:41:00.667Z,85.74
2018-05-24T00:43:29.129Z,85.23
2018-05-24T00:45:57.585Z,84.79
2018-05-24T00:48:26.033Z,84.81
2018-05-24T00:50:54.481Z,84.88
2018-05-24T00:53:22.932Z,84.95
2018-05-24T00:55:51.355Z,85.18
2018-05-24T00:58:19.821Z,85.94
2018-05-24T01:00:48.259Z,85.43
2018-05-24T01:03:16.706Z,85.15
2018-05-24T01:05:45.123Z,84.87
2018-05-24T01:08:13.592Z,84.75
2018-05-24T01:10:42.052Z,84.84
2018-05-24T01:13:10.487Z,85.05
2018-05-24T01:15:38.916Z,85.08
2018-05-24T01:18:07.384Z,84.79
2018-05-24T01:20:35.804Z,83.70
2018-05-24T01:23:04.250Z,83.88
2018-05-24T01:25:32.680Z,84.09
2018-05-24T01:28:01.157Z,84.22
2018-05-24T01:30:29.597Z,84.41
2018-05-24T01:32:58.827Z,84.41
2018-05-24T01:35:27.249Z,84.41
2018-05-24T01:37:55.708Z,84.30
2018-05-24T01:40:24.154Z,84.32
2018-05-24T01:42:53.368Z,84.62
2018-05-24T01:45:21.795Z,84.77
2018-05-24T01:47:50.247Z,84.94
2018-05-24T01:50:19.425Z,84.74
2018-05-24T01:52:47.903Z,85.16
2018-05-24T01:55:17.114Z,84.81
2018-05-24T01:57:45.533Z,85.07
2018-05-24T02:00:14.095Z,84.86
2018-05-24T02:02:42.426Z,84.60
2018-05-24T02:05:10.877Z,84.78
2018-05-24T02:07:39.330Z,84.78
2018-05-24T02:10:08.549Z,84.46
2018-05-24T02:12:36.964Z,84.40
2018-05-24T02:15:05.415Z,84.26
2018-05-24T02:17:33.871Z,84.70
2018-05-24T02:20:03.112Z,84.28
2018-05-24T02:22:31.537Z,84.41
2018-05-24T02:25:00.001Z,83.45
2018-05-24T02:27:28.460Z,83.33
2018-05-24T02:29:56.920Z,83.41
2018-05-24T02:32:26.133Z,83.57
2018-05-24T02:34:55.357Z,83.47
2018-05-24T02:37:23.810Z,83.44
2018-05-24T02:39:53.053Z,83.34
2018-05-24T02:42:21.519Z,83.44
2018-05-24T02:44:49.964Z,83.50
2018-05-24T02:47:18.403Z,83.59
2018-05-24T02:49:47.639Z,83.60
2018-05-24T02:52:16.141Z,83.67
2018-05-24T02:54:44.609Z,83.27
2018-05-24T02:57:13.043Z,83.02
2018-05-24T02:59:41.480Z,83.02
2018-05-24T03:02:09.909Z,83.01
2018-05-24T03:04:38.375Z,83.23
2018-05-24T03:07:07.564Z,84.35
2018-05-24T03:09:36.021Z,84.55
2018-05-24T03:12:04.455Z,84.19
2018-05-24T03:14:33.683Z,84.42
2018-05-24T03:17:02.134Z,84.35
2018-05-24T03:19:31.371Z,84.67
2018-05-24T03:21:59.801Z,85.53
2018-05-24T03:24:28.250Z,85.20
2018-05-24T03:26:56.699Z,85.30
2018-05-24T03:29:25.154Z,85.83
2018-05-24T03:31:53.566Z,85.53
2018-05-24T03:34:22.759Z,85.52
2018-05-24T03:36:51.976Z,85.11
2018-05-24T03:39:20.400Z,84.84
2018-05-24T03:41:48.866Z,85.59
2018-05-24T03:44:17.288Z,85.46
2018-05-24T03:46:45.741Z,85.63
2018-05-24T03:49:14.177Z,85.83
2018-05-24T03:51:43.390Z,86.06
2018-05-24T03:54:11.831Z,85.77
2018-05-24T03:56:40.295Z,85.54
2018-05-24T04:02:56.671Z,85.43
2018-05-24T04:05:25.118Z,85.49
2018-05-24T04:07:53.534Z,85.68
2018-05-24T04:10:21.968Z,86.25
2018-05-24T04:12:50.372Z,86.28
2018-05-24T04:15:18.821Z,85.94
2018-05-24T04:17:47.231Z,85.85
2018-05-24T04:20:15.635Z,85.89
2018-05-24T04:22:44.847Z,86.27
2018-05-24T04:25:13.259Z,86.63
2018-05-24T04:27:41.688Z,87.34
2018-05-24T04:30:10.093Z,88.50
2018-05-24T04:32:39.295Z,89.05
2018-05-24T04:35:08.469Z,89.35
2018-05-24T04:37:36.923Z,89.64
2018-05-24T04:40:05.365Z,89.61
2018-05-24T04:42:33.856Z,89.45
2018-05-24T04:45:02.275Z,89.56
2018-05-24T04:47:30.757Z,89.81
2018-05-24T04:49:59.163Z,89.67
2018-05-24T04:52:27.632Z,89.61
2018-05-24T04:54:56.090Z,89.86
2018-05-24T04:57:24.666Z,89.90
2018-05-24T04:59:53.087Z,90.57
2018-05-24T05:02:21.588Z,90.31
2018-05-24T05:04:50.012Z,89.63
2018-05-24T05:07:19.234Z,89.56
2018-05-24T05:09:47.654Z,89.66
2018-05-24T05:12:16.084Z,89.75
2018-05-24T05:14:45.373Z,89.94
2018-05-24T05:17:14.491Z,89.68
2018-05-24T05:19:43.667Z,89.37
2018-05-24T05:22:12.102Z,89.15
2018-05-24T05:24:40.506Z,88.95
2018-05-24T05:27:08.945Z,89.19
2018-05-24T05:29:37.369Z,88.99
2018-05-24T05:32:05.815Z,88.97
2018-05-24T05:34:34.238Z,89.21
2018-05-24T05:37:02.683Z,88.69
2018-05-24T05:39:31.094Z,88.21
2018-05-24T05:41:59.543Z,88.78
2018-05-24T05:44:28.722Z,87.97
2018-05-24T05:46:57.167Z,86.78
2018-05-24T05:49:25.575Z,86.22
2018-05-24T05:51:54.022Z,86.99
2018-05-24T05:54:22.456Z,87.41
2018-05-24T05:56:50.891Z,87.29
2018-05-24T05:59:19.302Z,86.85
2018-05-24T06:01:47.763Z,86.20
2018-05-24T06:04:16.192Z,86.21
2018-05-24T06:06:44.640Z,86.31
2018-05-24T06:09:13.076Z,85.99
2018-05-24T06:11:41.491Z,86.32
2018-05-24T06:14:09.943Z,86.76
2018-05-24T06:16:38.365Z,87.01
2018-05-24T06:19:06.807Z,86.92
2018-05-24T06:21:35.370Z,86.79
2018-05-24T06:24:04.531Z,86.74
2018-05-24T06:26:32.956Z,87.16
2018-05-24T06:29:01.417Z,86.89
2018-05-24T06:31:29.835Z,86.31
2018-05-24T06:33:58.299Z,86.91
2018-05-24T06:36:26.746Z,86.11
2018-05-24T06:38:55.225Z,84.30
2018-05-24T06:41:24.424Z,84.09
2018-05-24T06:43:52.905Z,84.16
2018-05-24T06:46:22.210Z,84.07
2018-05-24T06:48:51.361Z,83.80
2018-05-24T06:51:19.798Z,84.08
2018-05-24T06:53:48.316Z,84.12
2018-05-24T06:56:17.460Z,84.41
2018-05-24T06:58:46.579Z,84.48
2018-05-24T07:01:15.768Z,84.08
2018-05-24T07:03:44.230Z,84.06
2018-05-24T07:06:12.658Z,82.85
2018-05-24T07:08:41.865Z,83.93
2018-05-24T07:11:10.355Z,83.46
2018-05-24T07:13:38.776Z,83.28
2018-05-24T07:16:07.200Z,83.97
2018-05-24T07:18:35.685Z,84.68
2018-05-24T07:21:04.100Z,84.42
2018-05-24T07:23:32.549Z,83.22
2018-05-24T07:26:00.992Z,83.80
2018-05-24T07:28:29.430Z,83.77
2018-05-24T07:30:58.609Z,83.34
2018-05-24T07:33:27.068Z,83.21
2018-05-24T07:35:55.486Z,82.94
2018-05-24T07:38:23.952Z,82.13
2018-05-24T07:40:52.376Z,82.59
2018-05-24T07:43:21.597Z,82.46
2018-05-24T07:45:50.026Z,81.24
2018-05-24T07:48:18.481Z,82.05
2018-05-24T07:50:46.899Z,81.94
2018-05-24T07:53:15.372Z,82.07
2018-05-24T07:55:43.794Z,82.50
2018-05-24T07:58:13.061Z,82.06
2018-05-24T08:00:41.486Z,81.37
2018-05-24T08:03:10.718Z,81.51
2018-05-24T08:05:39.179Z,81.97
2018-05-24T08:08:08.432Z,81.16
2018-05-24T08:10:36.876Z,81.13
2018-05-24T08:13:05.333Z,80.89
2018-05-24T08:15:34.520Z,81.39
2018-05-24T08:18:02.979Z,81.70
2018-05-24T08:20:31.407Z,81.14
2018-05-24T08:22:59.810Z,80.77
2018-05-24T08:25:28.283Z,80.15
2018-05-24T08:27:57.485Z,79.62
2018-05-24T08:30:26.700Z,81.67
2018-05-24T08:32:55.116Z,80.78
2018-05-24T08:35:23.579Z,76.64
2018-05-24T08:37:52.000Z,74.28
2018-05-24T08:40:20.448Z,75.56
2018-05-24T08:42:48.868Z,75.13
2018-05-24T08:45:17.440Z,73.82
2018-05-24T08:47:45.865Z,73.60
2018-05-24T08:50:15.078Z,73.27
2018-05-24T08:52:44.272Z,73.60
2018-05-24T08:55:12.718Z,73.58
2018-05-24T08:57:41.167Z,72.83
2018-05-24T09:00:09.610Z,73.97
2018-05-24T09:02:38.057Z,73.37
2018-05-24T09:05:06.518Z,71.16
2018-05-24T09:07:34.974Z,73.14
2018-05-24T09:10:03.428Z,73.19
2018-05-24T09:12:31.893Z,73.37
2018-05-24T09:15:00.343Z,73.14
2018-05-24T09:17:29.545Z,72.59
2018-05-24T09:19:58.760Z,74.28
2018-05-24T09:22:27.995Z,74.78
2018-05-24T09:24:56.442Z,73.71
2018-05-24T09:27:25.690Z,73.38
2018-05-24T09:29:54.139Z,72.58
2018-05-24T09:32:22.697Z,71.74
2018-05-24T09:34:51.923Z,73.56
2018-05-24T09:37:20.452Z,71.11
2018-05-24T09:39:48.896Z,69.30
2018-05-24T09:42:17.414Z,70.11
2018-05-24T09:44:45.788Z,67.04
2018-05-24T09:47:14.338Z,66.86
2018-05-24T09:49:43.536Z,66.45
2018-05-24T09:52:12.715Z,63.34
2018-05-24T09:54:41.169Z,64.55
2018-05-24T09:57:09.584Z,59.95
2018-05-24T09:59:38.027Z,62.04
2018-05-24T10:02:06.437Z,61.99
2018-05-24T10:04:34.958Z,64.66
2018-05-24T10:07:03.331Z,64.35
2018-05-24T10:09:31.795Z,58.76
2018-05-24T10:12:00.206Z,62.52
2018-05-24T10:14:29.432Z,58.45
2018-05-24T10:16:58.604Z,53.94
2018-05-24T10:19:27.064Z,53.32
2018-05-24T10:21:55.474Z,53.00
2018-05-24T10:24:23.943Z,55.23
2018-05-24T10:26:52.364Z,57.54
2018-05-24T10:29:21.638Z,57.60
2018-05-24T10:31:50.035Z,57.85
2018-05-24T10:34:19.224Z,56.50
2018-05-24T10:36:47.697Z,55.66
2018-05-24T10:39:16.118Z,56.93
2018-05-24T10:41:45.328Z,59.36
2018-05-24T10:44:14.512Z,59.48
2018-05-24T10:46:42.970Z,59.24
2018-05-24T10:49:11.967Z,63.30
2018-05-24T10:51:40.420Z,65.04
2018-05-24T10:54:08.876Z,65.52
2018-05-24T10:56:37.438Z,65.69
2018-05-24T10:59:06.573Z,66.22
2018-05-24T11:01:35.451Z,66.62
2018-05-24T11:04:04.641Z,66.08
2018-05-24T11:06:33.102Z,67.11
2018-05-24T11:09:01.525Z,65.66
2018-05-24T11:11:30.756Z,65.87
2018-05-24T11:13:59.191Z,66.51
2018-05-24T11:16:28.220Z,64.43
2018-05-24T11:18:57.385Z,64.10
2018-05-24T11:21:25.840Z,63.73
2018-05-24T11:23:54.235Z,60.64
2018-05-24T11:26:22.756Z,62.24
2018-05-24T11:28:51.119Z,64.27
2018-05-24T11:31:19.577Z,63.17
2018-05-24T11:33:47.988Z,64.45
2018-05-24T11:36:16.434Z,63.71
2018-05-24T11:38:44.864Z,62.45
2018-05-24T11:41:13.314Z,66.82
2018-05-24T11:43:41.728Z,63.77
2018-05-24T11:46:10.176Z,66.63
2018-05-24T11:48:38.608Z,63.17
2018-05-24T11:51:07.083Z,62.60
2018-05-24T11:53:35.515Z,64.05
2018-05-24T11:56:03.970Z,63.78
2018-05-24T11:58:33.147Z,63.22
2018-05-24T12:01:02.505Z,64.15
2018-05-24T12:03:30.906Z,66.26
2018-05-24T12:05:59.355Z,66.03
2018-05-24T12:08:28.531Z,66.81
2018-05-24T12:10:56.973Z,61.06
2018-05-24T12:13:25.390Z,64.76
2018-05-24T12:15:53.846Z,63.71
2018-05-24T12:18:22.257Z,61.21
2018-05-24T12:20:50.705Z,62.56
2018-05-24T12:23:19.888Z,62.95
2018-05-24T12:25:49.158Z,59.99
2018-05-24T12:28:17.578Z,61.89
2018-05-24T12:30:46.006Z,65.29
2018-05-24T12:33:14.473Z,64.84
2018-05-24T12:35:42.981Z,65.89
2018-05-24T12:38:11.395Z,65.15
2018-05-24T12:40:39.825Z,65.05
2018-05-24T12:43:08.275Z,63.07
2018-05-24T12:45:37.456Z,64.94
2018-05-24T12:48:05.903Z,67.11
2018-05-24T12:50:34.315Z,66.00
2018-05-24T12:53:02.783Z,64.49
2018-05-24T12:55:31.198Z,64.74
2018-05-24T12:57:59.641Z,63.29
2018-05-24T13:00:28.054Z,63.60
2018-05-24T13:02:56.518Z,63.04
2018-05-24T13:05:24.930Z,63.97
2018-05-24T13:07:53.393Z,63.69
2018-05-24T13:10:22.156Z,64.95
2018-05-24T13:12:50.602Z,65.14
2018-05-24T13:15:19.784Z,58.42
2018-05-24T13:17:48.243Z,60.42
2018-05-24T13:20:16.655Z,62.78
2018-05-24T13:22:45.108Z,63.71
2018-05-24T13:25:13.511Z,61.44
2018-05-24T13:27:41.967Z,64.67
2018-05-24T13:30:10.401Z,64.11
2018-05-24T13:32:38.843Z,65.32
2018-05-24T13:35:07.263Z,66.97
2018-05-24T13:37:35.798Z,68.56
2018-05-24T13:40:04.252Z,69.82
2018-05-24T13:42:33.524Z,71.42
2018-05-24T13:45:01.958Z,71.43
2018-05-24T13:47:30.429Z,70.14
2018-05-24T13:49:59.599Z,71.97
2018-05-24T13:52:28.127Z,70.99
2018-05-24T13:54:57.301Z,71.92
2018-05-24T13:57:46.447Z,73.17
2018-05-24T14:00:14.852Z,73.63
2018-05-24T14:02:43.285Z,73.76
2018-05-24T14:05:11.678Z,74.38
2018-05-24T14:07:40.164Z,74.99
2018-05-24T14:10:08.590Z,75.02
2018-05-24T14:12:37.020Z,75.15
2018-05-24T14:15:05.461Z,75.43
2018-05-24T14:17:33.939Z,76.04
2018-05-24T14:20:02.335Z,77.05
2018-05-24T14:22:31.565Z,77.55
2018-05-24T14:24:59.980Z,78.28
2018-05-24T14:27:28.438Z,78.87
2018-05-24T14:29:56.834Z,79.60
2018-05-24T14:32:25.324Z,79.84
2018-05-24T14:34:53.735Z,79.07
2018-05-24T14:37:22.179Z,77.44
2018-05-24T14:39:50.581Z,77.15
2018-05-24T14:42:19.016Z,77.90
2018-05-24T14:44:48.185Z,78.50
2018-05-24T14:47:16.637Z,79.62
2018-05-24T14:49:45.034Z,79.57
2018-05-24T14:52:13.435Z,79.59
2018-05-24T14:54:41.876Z,79.54
2018-05-24T14:57:10.273Z,79.92
2018-05-24T14:59:38.704Z,80.16
2018-05-24T15:02:07.113Z,79.79
2018-05-24T15:04:35.532Z,80.22
2018-05-24T15:07:03.931Z,80.23
2018-05-24T15:09:32.357Z,80.55
2018-05-24T15:12:01.522Z,79.80
2018-05-24T15:14:29.956Z,80.97
2018-05-24T15:16:58.540Z,79.20
2018-05-24T15:19:26.988Z,77.90
2018-05-24T15:21:55.413Z,77.14
2018-05-24T15:24:23.877Z,75.22
2018-05-24T15:26:53.062Z,76.25
2018-05-24T15:29:21.501Z,76.87
2018-05-24T15:31:49.934Z,76.67
2018-05-24T15:34:18.394Z,77.93
2018-05-24T15:36:46.823Z,78.69
2018-05-24T15:39:16.028Z,78.85
2018-05-24T15:41:44.469Z,79.73
2018-05-24T15:44:12.924Z,79.54
2018-05-24T15:46:41.360Z,79.91
2018-05-24T15:49:09.821Z,79.37
2018-05-24T15:51:38.236Z,79.82
2018-05-24T15:54:07.482Z,80.55
2018-05-24T15:56:35.915Z,78.37
2018-05-24T15:59:05.319Z,78.13
2018-05-24T16:01:33.740Z,78.75
2018-05-24T16:04:02.194Z,78.24
2018-05-24T16:06:30.616Z,77.93
2018-05-24T16:08:59.089Z,77.48
2018-05-24T16:11:27.529Z,77.03
2018-05-24T16:13:56.019Z,76.90
2018-05-24T16:16:24.443Z,77.53
2018-05-24T16:18:52.886Z,78.12
2018-05-24T16:21:21.295Z,79.02
2018-05-24T16:23:50.505Z,79.46
2018-05-24T16:26:18.926Z,80.43
2018-05-24T16:28:47.363Z,81.21
2018-05-24T16:31:16.541Z,81.31
2018-05-24T16:33:44.972Z,81.14
2018-05-24T16:36:13.372Z,81.01
2018-05-24T16:38:41.802Z,80.95
2018-05-24T16:41:10.216Z,80.93
2018-05-24T16:43:38.629Z,80.84
2018-05-24T16:46:07.078Z,80.38
2018-05-24T16:48:36.302Z,80.68
2018-05-24T16:51:04.715Z,81.61
2018-05-24T16:53:33.123Z,81.81
2018-05-24T16:56:01.571Z,81.88
2018-05-24T16:58:29.972Z,82.43
2018-05-24T17:00:58.428Z,82.86
2018-05-24T17:03:27.599Z,82.94
2018-05-24T17:05:56.810Z,83.44
2018-05-24T17:08:25.993Z,83.60
2018-05-24T17:10:55.211Z,83.38
2018-05-24T17:13:24.395Z,83.04
2018-05-24T17:15:53.624Z,83.09
2018-05-24T17:18:22.047Z,83.20
2018-05-24T17:20:50.496Z,83.81
2018-05-24T17:23:18.943Z,84.34
2018-05-24T17:25:47.390Z,84.03
2018-05-24T17:28:15.818Z,84.21
2018-05-24T17:30:44.259Z,84.01
2018-05-24T17:33:12.676Z,84.09
2018-05-24T17:35:41.126Z,83.96
2018-05-24T17:38:09.551Z,83.95
2018-05-24T17:40:38.004Z,83.74
2018-05-24T17:43:06.442Z,83.70
2018-05-24T17:45:35.667Z,83.89
2018-05-24T17:48:04.083Z,84.30
2018-05-24T17:50:32.537Z,84.29
2018-05-24T17:53:00.956Z,84.47
2018-05-24T17:55:29.409Z,84.42
2018-05-24T17:57:57.836Z,84.51
2018-05-24T18:00:26.295Z,84.88
2018-05-24T18:02:54.734Z,84.71
2018-05-24T18:05:23.939Z,84.70
2018-05-24T18:07:52.412Z,84.32
2018-05-24T18:10:21.632Z,83.99
2018-05-24T18:12:50.090Z,83.96
2018-05-24T18:15:18.537Z,83.58
2018-05-24T18:17:46.981Z,83.38
2018-05-24T18:20:16.209Z,83.84
2018-05-24T18:22:44.627Z,83.97
2018-05-24T18:25:13.069Z,84.20
2018-05-24T18:27:41.489Z,84.17
2018-05-24T18:30:09.956Z,84.55
2018-05-24T18:32:38.401Z,84.36
2018-05-24T18:35:07.623Z,84.57
2018-05-24T18:37:36.044Z,84.68
2018-05-24T18:40:04.520Z,85.03
2018-05-24T18:42:33.008Z,85.17
2018-05-24T18:45:01.433Z,85.08
2018-05-24T18:47:30.670Z,84.94
2018-05-24T18:49:59.087Z,84.79
2018-05-24T18:52:27.547Z,84.97
2018-05-24T18:54:55.966Z,84.83
2018-05-24T18:57:24.429Z,84.68
2018-05-24T18:59:52.886Z,84.80
2018-05-24T19:02:22.242Z,84.88
2018-05-24T19:04:50.656Z,84.68
2018-05-24T19:07:19.955Z,84.53
2018-05-24T19:09:49.141Z,84.85
2018-05-24T19:12:17.601Z,84.86
2018-05-24T19:14:46.028Z,84.43
2018-05-24T19:17:15.256Z,84.50
2018-05-24T19:19:43.673Z,84.67
2018-05-24T19:22:12.152Z,84.98
2018-05-24T19:24:40.572Z,84.99
2018-05-24T19:27:09.019Z,85.12
2018-05-24T19:29:37.443Z,85.19
2018-05-24T19:32:06.692Z,85.18
2018-05-24T19:34:35.132Z,84.89
2018-05-24T19:37:04.361Z,84.87
2018-05-24T19:39:32.944Z,85.01
2018-05-24T19:42:01.397Z,85.19
2018-05-24T19:44:29.818Z,85.62
2018-05-24T19:46:58.336Z,85.72
2018-05-24T19:49:26.771Z,85.88
2018-05-24T19:51:55.978Z,86.03
2018-05-24T19:54:25.162Z,86.34
2018-05-24T19:56:53.619Z,86.16
2018-05-24T19:59:22.046Z,85.89
2018-05-24T20:01:50.520Z,85.66
2018-05-24T20:04:19.700Z,85.47
2018-05-24T20:06:48.152Z,85.05
2018-05-24T20:09:16.581Z,84.32
2018-05-24T20:11:45.032Z,84.46
2018-05-24T20:14:13.463Z,84.88
2018-05-24T20:16:42.691Z,85.50
2018-05-24T20:19:11.101Z,85.90
2018-05-24T20:21:39.570Z,86.58
2018-05-24T20:24:07.975Z,86.74
2018-05-24T20:26:36.453Z,86.85
2018-05-24T20:29:04.881Z,86.84
2018-05-24T20:31:33.328Z,86.91
2018-05-24T20:34:01.738Z,86.53
2018-05-24T20:36:30.178Z,86.44
2018-05-24T20:38:58.591Z,86.52
2018-05-24T20:41:27.075Z,86.51
2018-05-24T20:43:55.491Z,86.66
2018-05-24T20:46:24.670Z,86.71
2018-05-24T20:48:53.109Z,86.55
2018-05-24T20:51:21.508Z,86.18
2018-05-24T20:53:49.952Z,86.07
2018-05-24T20:56:19.146Z,86.02
2018-05-24T20:58:47.589Z,85.92
2018-05-24T21:01:16.007Z,85.62
2018-05-24T21:03:45.222Z,85.40
2018-05-24T21:06:13.639Z,84.98
2018-05-24T21:08:42.072Z,84.50
2018-05-24T21:11:10.506Z,83.84
2018-05-24T21:13:38.978Z,82.95
2018-05-24T21:16:08.139Z,81.64
2018-05-24T21:18:37.435Z,81.04
2018-05-24T21:21:05.842Z,81.04
2018-05-24T21:23:35.052Z,81.65
2018-05-24T21:26:04.225Z,82.04
2018-05-24T21:28:32.669Z,81.82
2018-05-24T21:31:01.075Z,82.33
2018-05-24T21:33:29.519Z,82.12
2018-05-24T21:35:57.923Z,82.69
2018-05-24T21:38:26.368Z,82.48
2018-05-24T21:40:55.546Z,82.82
2018-05-24T21:43:23.984Z,83.18
2018-05-24T21:45:52.394Z,83.57
2018-05-24T21:48:22.667Z,83.78
2018-05-24T21:50:51.062Z,83.99
2018-05-24T21:53:20.258Z,84.49
2018-05-24T21:55:49.494Z,85.09
2018-05-24T21:58:17.927Z,85.47
2018-05-24T22:00:51.261Z,85.71
2018-05-24T22:03:19.707Z,85.94
2018-05-24T22:05:48.114Z,86.66
2018-05-24T22:08:17.359Z,86.55
2018-05-24T22:10:45.761Z,86.30
2018-05-24T22:13:14.189Z,86.26
2018-05-24T22:15:42.604Z,86.13
2018-05-24T22:18:11.033Z,86.23
2018-05-24T22:20:39.441Z,86.17
2018-05-24T22:23:07.885Z,86.43
2018-05-24T22:25:36.294Z,86.72
2018-05-24T22:28:05.490Z,87.18
2018-05-24T22:30:33.901Z,86.83
2018-05-24T22:33:02.340Z,86.68
2018-05-24T22:35:30.741Z,86.74
2018-05-24T22:37:59.179Z,86.73
2018-05-24T22:40:27.586Z,87.05
2018-05-24T22:42:56.023Z,87.57
2018-05-24T22:45:24.428Z,87.64
2018-05-24T22:47:52.930Z,87.61
2018-05-24T22:50:21.300Z,87.53
2018-05-24T22:52:49.748Z,87.34
2018-05-24T22:55:18.915Z,87.07
2018-05-24T22:57:47.322Z,86.98
2018-05-24T23:00:16.524Z,87.24
2018-05-24T23:02:44.953Z,86.97
2018-05-24T23:05:13.421Z,87.21
2018-05-24T23:07:41.876Z,87.49
2018-05-24T23:10:11.078Z,86.85
2018-05-24T23:12:40.244Z,86.49
2018-05-24T23:15:08.679Z,86.76
2018-05-24T23:17:37.863Z,86.99
2018-05-24T23:20:06.297Z,87.51
2018-05-24T23:22:39.595Z,87.74
2018-05-24T23:25:08.086Z,87.89
2018-05-24T23:27:36.490Z,87.88
2018-05-24T23:30:04.939Z,87.60
2018-05-24T23:32:33.384Z,87.48
2018-05-24T23:35:02.591Z,87.34
2018-05-24T23:37:31.802Z,86.71
2018-05-24T23:40:01.019Z,86.64
2018-05-24T23:42:29.445Z,86.36
2018-05-24T23:44:57.923Z,86.51
2018-05-24T23:47:26.327Z,86.07
2018-05-24T23:49:54.758Z,86.01
2018-05-24T23:52:23.218Z,85.93
2018-05-24T23:54:52.411Z,86.08
2018-05-24T23:57:20.811Z,86.25
2018-05-24T23:59:49.244Z,86.16
